• Join FlightAware (Why Join?)
  • Login
  • US Flag 
10:24AM EDT


 

Airport Tracker/Info


-or-


 

Live Flight TrackerFlight Track Log ✈ AM336 ✈ 19-Jun-2013 ✈ YMEN / MEB - YMIA / MQL

Flight Track Log - Related Links

Times and Time Zones

All times are in EDT time to prevent confusion due to time zone crossing. See the AM336 flight status page for this flight to view local times or setup timezone preferences in your user account.

Time Position Orientation Groundspeed Altitude Reporting Facility
EDT Latitude Longitude Course Direction KTS MPH feet Rate Location/Type
05:25PM -37.7613 144.9011 193° South 145 167 1,600  Level Aus ATC (RADAR)
05:25PM -37.7650 144.9000 185° South 146 168 1,400 1,200 Descending FlightAware
05:25PM -37.7860 144.9090 161° South 144 166 2,400 1,560 Climbing FlightAware
05:26PM -37.8050 144.9210 153° Southeast 158 182 3,100 1,380 Climbing FlightAware
05:26PM -37.8160 144.9380 129° Southeast 168 193 3,700 2,220 Climbing FlightAware
05:27PM -37.7980 144.9550 37° Northeast 150 173 5,100 2,580 Climbing FlightAware
05:27PM -37.7810 144.9570 North 143 165 6,100 2,460 Climbing FlightAware
05:28PM -37.7562 144.9522 North 152 175 7,600 1,800 Climbing Aus ATC (RADAR)
05:28PM -37.7510 144.9450 North 154 177 7,500 1,020 Descending FlightAware
05:28PM -37.7400 144.9330 319° Northwest 157 181 8,200 2,040 Climbing FlightAware
05:29PM -37.7300 144.9210 316° Northwest 155 178 8,900 2,100 Climbing FlightAware
05:29PM -37.7150 144.9050 320° Northwest 160 184 9,700 1,800 Climbing FlightAware
05:30PM -37.6882 144.8751 320° Northwest 174 200 11,000 1,200 Climbing Aus ATC (RADAR)
05:30PM -37.6890 144.8760 320° Northwest 183 211 10,600 1,140 Descending FlightAware
05:31PM -37.6630 144.8460 318° Northwest 188 216 11,800 1,620 Climbing FlightAware
05:31PM -37.6330 144.8190 318° Northwest 192 221 12,800 2,040 Climbing FlightAware
05:31PM -37.6306 144.8172 318° Northwest 187 215 13,300 2,340 Climbing Aus ATC (RADAR)
05:32PM -37.6047 144.7949 318° Northwest 188 216 14,300 960 Climbing Aus ATC (RADAR)
05:32PM -37.6010 144.7920 318° Northwest 192 221 14,000 960 Descending FlightAware
05:33PM -37.5750 144.7700 326° Northwest 189 217 15,000 1,680 Climbing FlightAware
05:33PM -37.5380 144.7380 326° Northwest 196 226 16,400 1,980 Climbing FlightAware
05:33PM -37.5354 144.7361 326° Northwest 187 215 16,800 1,500 Climbing Aus ATC (RADAR)
05:34PM -37.5070 144.7120 326° Northwest 199 229 17,400 1,320 Climbing FlightAware
05:35PM -37.4770 144.6870 327° Northwest 200 230 18,500 1,500 Climbing FlightAware
05:35PM -37.4430 144.6570 325° Northwest 200 230 19,600 1,620 Climbing FlightAware
05:36PM -37.4163 144.6351 325° Northwest 202 232 20,600 1,020 Climbing Aus ATC (RADAR)
05:36PM -37.4140 144.6330 325° Northwest 209 241 20,300 960 Descending FlightAware
05:37PM -37.3810 144.6050 325° Northwest 199 229 21,400 2,280 Climbing FlightAware
05:37PM -37.3772 144.6019 325° Northwest 197 227 21,900 1,320 Climbing Aus ATC (RADAR)
05:38PM -37.3460 144.5750 326° Northwest 198 228 22,400 960 Climbing FlightAware
05:38PM -37.3150 144.5500 327° Northwest 195 224 23,300 1,080 Climbing FlightAware
05:39PM -37.2820 144.5220 326° Northwest 197 227 24,000 420 Climbing FlightAware
05:40PM -37.2420 144.4890 327° Northwest 239 275 24,000  Level FlightAware
05:40PM -37.2100 144.4620 326° Northwest 251 289 24,000  Level FlightAware
05:41PM -37.1660 144.4260 326° Northwest 262 302 24,000 480 Level FlightAware
05:41PM -37.1615 144.4214 326° Northwest 256 295 24,400  Climbing Aus ATC (RADAR)
05:42PM -37.1240 144.3900 326° Northwest 266 306 24,000 -300 Descending FlightAware
05:42PM -37.0770 144.3520 327° Northwest 268 308 24,000 240 Level FlightAware
05:43PM -37.0382 144.3190 327° Northwest 266 306 24,400  Climbing Aus ATC (RADAR)
05:43PM -37.0370 144.3180 327° Northwest 270 311 24,000  Descending FlightAware
05:44PM -37.0019 144.2889 327° Northwest 267 307 24,400  Climbing Aus ATC (RADAR)
05:44PM -36.9890 144.2780 327° Northwest 270 311 24,000 -480 Descending FlightAware
05:45PM -36.9470 144.2440 327° Northwest 271 312 24,000  Level FlightAware
05:45PM -36.9010 144.2060 327° Northwest 271 312 24,000 240 Level FlightAware
05:46PM -36.8612 144.1724 327° Northwest 268 308 24,400  Climbing Aus ATC (RADAR)
05:46PM -36.8580 144.1710 327° Northwest 271 312 24,000  Descending FlightAware
05:46PM -36.8244 144.1425 327° Northwest 269 310 24,400  Climbing Aus ATC (RADAR)
05:47PM -36.8160 144.1360 327° Northwest 270 311 24,000  Descending FlightAware
05:47PM -36.7774 144.1037 327° Northwest 269 310 24,400  Climbing Aus ATC (RADAR)
05:47PM -36.7750 144.1020 327° Northwest 270 311 24,000 -480 Descending FlightAware
05:48PM -36.7230 144.0590 326° Northwest 269 310 24,000  Level FlightAware
05:49PM -36.6860 144.0290 326° Northwest 270 311 24,000 540 Level FlightAware
05:49PM -36.6791 144.0223 326° Northwest 267 307 24,400  Climbing Aus ATC (RADAR)
05:49PM -36.6440 143.9940 326° Northwest 269 310 24,000  Descending FlightAware
05:51PM -36.5648 143.9294 326° Northwest 266 306 24,400 180 Climbing Aus ATC (RADAR)
05:51PM -36.5285 143.9003 327° Northwest 265 305 24,400 -600 Level Aus ATC (RADAR)
05:51PM -36.6050 143.9620 327° Northwest 268 308 24,000 -600 Descending FlightAware
05:52PM -36.4860 143.8650 327° Northwest 267 307 24,000  Level FlightAware
05:53PM -36.4400 143.8280 327° Northwest 266 306 24,000  Level FlightAware
05:53PM -36.3980 143.7940 327° Northwest 267 307 24,000  Level FlightAware
05:54PM -36.3570 143.7610 327° Northwest 266 306 24,000  Level FlightAware
05:55PM -36.3110 143.7230 326° Northwest 267 307 24,000  Level FlightAware
05:55PM -36.2690 143.6890 327° Northwest 267 307 24,000  Level FlightAware
05:56PM -36.2240 143.6520 326° Northwest 267 307 24,000 300 Level FlightAware
05:57PM -36.1892 143.6234 326° Northwest 266 306 24,400  Climbing Aus ATC (RADAR)
05:57PM -36.1820 143.6190 326° Northwest 267 307 24,000 -540 Descending FlightAware
05:58PM -36.1390 143.5840 326° Northwest 268 308 24,000 540 Level FlightAware
05:58PM -36.1371 143.5828 326° Northwest 265 305 24,400  Climbing Aus ATC (RADAR)
05:58PM -36.0930 143.5470 327° Northwest 268 308 24,000 -300 Descending FlightAware
05:59PM -36.0460 143.5100 328° Northwest 267 307 24,000 240 Level FlightAware
06:00PM -35.9970 143.4704 328° Northwest 265 305 24,400  Climbing Aus ATC (RADAR)
06:00PM -35.9790 143.4550 328° Northwest 267 307 24,000 -480 Descending FlightAware
06:01PM -35.9370 143.4220 328° Northwest 267 307 24,000  Level FlightAware
06:02PM -35.8910 143.3850 327° Northwest 267 307 24,000  Level FlightAware
06:02PM -35.8490 143.3520 328° Northwest 267 307 24,000  Level FlightAware
06:03PM -35.8020 143.3140 327° Northwest 267 307 24,000  Level FlightAware
06:04PM -35.7620 143.2820 327° Northwest 266 306 24,000  Level FlightAware
06:04PM -35.7190 143.2480 327° Northwest 266 306 24,000 300 Level FlightAware
06:05PM -35.6862 143.2233 327° Northwest 264 304 24,400  Climbing Aus ATC (RADAR)
06:05PM -35.6640 143.2040 327° Northwest 257 296 24,000 -360 Descending FlightAware
06:06PM -35.6180 143.1670 327° Northwest 257 296 24,000 240 Level FlightAware
06:07PM -35.5786 143.1381 327° Northwest 263 303 24,400  Climbing Aus ATC (RADAR)
06:07PM -35.5710 143.1300 327° Northwest 256 295 24,000  Descending FlightAware
06:07PM -35.5275 143.0969 327° Northwest 261 300 24,400  Climbing Aus ATC (RADAR)
06:07PM -35.5300 143.0980 327° Northwest 255 293 24,000 -600 Descending FlightAware
06:08PM -35.4840 143.0610 327° Northwest 255 293 24,000  Level FlightAware
06:09PM -35.4440 143.0290 327° Northwest 255 293 24,000  Level FlightAware
06:09PM -35.4030 142.9970 328° Northwest 253 291 24,000  Level FlightAware
06:10PM -35.3580 142.9620 328° Northwest 252 290 24,000  Level FlightAware
06:11PM -35.3070 142.9220 327° Northwest 250 288 24,000 240 Level FlightAware
06:12PM -35.2650 142.8902 327° Northwest 257 296 24,400  Climbing Aus ATC (RADAR)
06:12PM -35.2670 142.8900 327° Northwest 252 290 24,000 -1,980 Descending FlightAware
06:12PM -35.2190 142.8530 328° Northwest 276 318 22,900 -1,500 Descending FlightAware
06:13PM -35.1740 142.8170 327° Northwest 288 331 21,900 -1,380 Descending FlightAware
06:14PM -35.1230 142.7770 327° Northwest 292 336 20,700 -1,320 Descending FlightAware
06:14PM -35.1031 142.7632 327° Northwest 293 337 20,600 -2,160 Descending Aus ATC (RADAR)
06:15PM -35.0650 142.7330 328° Northwest 288 331 19,400 -1,740 Descending FlightAware
06:15PM -35.0150 142.6930 327° Northwest 286 329 18,300 -1,500 Descending FlightAware
06:16PM -34.9670 142.6560 328° Northwest 283 326 17,200 -1,500 Descending FlightAware
06:17PM -34.9210 142.6200 327° Northwest 275 316 16,200 -1,020 Descending FlightAware
06:17PM -34.8850 142.5910 327° Northwest 275 316 15,900 -240 Descending FlightAware
06:18PM -34.8410 142.5550 326° Northwest 275 316 15,900  Level FlightAware
06:19PM -34.8090 142.5290 326° Northwest 275 316 15,900  Level FlightAware
06:20PM -34.7660 142.4930 325° Northwest 275 316 15,900 -3,540 Level FlightAware
06:20PM -34.6850 142.4397 325° Northwest 287 330 10,800  Descending Aus ATC (RADAR)
06:20PM -34.7260 142.4610 325° Northwest 275 316 15,900 7,800 Climbing FlightAware
06:21PM -34.6960 142.4360 326° Northwest 275 316 15,900  Level FlightAware
06:24PM -34.5595 142.3330 328° Northwest  Level Estimated
06:24PM -34.4405 142.2506 327° Northwest  Level Aus ATC (Calculated)
06:26PM -34.3550 142.1837 327° Northwest  Level Estimated
06:27PM -34.3009 142.1415 327° Northwest  Level Estimated
06:28PM -34.2469 142.0994 327° Northwest  Level Estimated
06:29PM -34.2292 142.0856 327° Northwest  Level Estimated
06:30PM -34.2292 142.0856 312° West  Level Estimated
06:31PM -34.2292 142.0856 312° West  Level Estimated
06:32PM -34.2292 142.0856 312° West  Level Estimated